createdAt,value
2018-10-01T00:04:14.675Z,8.65
2018-10-01T00:06:44.377Z,8.75
2018-10-01T00:09:15.148Z,8.72
2018-10-01T00:11:44.691Z,8.81
2018-10-01T00:14:15.148Z,8.82
2018-10-01T00:16:46.396Z,8.76
2018-10-01T00:19:21.432Z,8.74
2018-10-01T00:21:56.294Z,8.73
2018-10-01T00:24:26.088Z,8.71
2018-10-01T00:26:56.011Z,8.60
2018-10-01T00:29:26.177Z,8.55
2018-10-01T00:31:56.026Z,8.52
2018-10-01T00:34:26.095Z,8.50
2018-10-01T00:36:55.992Z,8.45
2018-10-01T00:39:26.004Z,8.47
2018-10-01T00:41:55.747Z,8.48
2018-10-01T00:44:25.995Z,8.45
2018-10-01T00:46:55.834Z,8.52
2018-10-01T00:49:25.598Z,8.47
2018-10-01T00:51:55.943Z,8.45
2018-10-01T00:54:25.779Z,8.47
2018-10-01T00:56:56.213Z,8.41
2018-10-01T00:59:26.727Z,8.37
2018-10-01T01:01:56.627Z,8.37
2018-10-01T01:04:26.416Z,8.31
2018-10-01T01:06:56.701Z,8.25
2018-10-01T01:09:26.610Z,8.19
2018-10-01T01:11:56.379Z,8.20
2018-10-01T01:14:26.551Z,8.19
2018-10-01T01:16:56.359Z,8.20
2018-10-01T01:19:26.026Z,8.25
2018-10-01T01:21:56.276Z,8.18
2018-10-01T01:24:26.317Z,8.10
2018-10-01T01:26:57.218Z,8.14
2018-10-01T01:29:27.595Z,8.13
2018-10-01T01:31:57.409Z,8.17
2018-10-01T01:34:26.883Z,8.15
2018-10-01T01:36:57.307Z,8.07
2018-10-01T01:39:27.343Z,7.99
2018-10-01T01:41:57.107Z,8.02
2018-10-01T01:44:27.580Z,7.92
2018-10-01T01:46:57.449Z,7.90
2018-10-01T01:49:27.106Z,7.73
2018-10-01T01:51:57.296Z,7.68
2018-10-01T01:54:27.071Z,7.53
2018-10-01T01:56:56.684Z,7.51
2018-10-01T01:59:26.949Z,7.53
2018-10-01T02:01:56.907Z,7.57
2018-10-01T02:04:26.618Z,7.57
2018-10-01T02:06:56.752Z,7.62
2018-10-01T02:09:27.130Z,7.61
2018-10-01T02:11:57.038Z,7.61
2018-10-01T02:14:27.150Z,7.65
2018-10-01T02:16:56.750Z,7.58
2018-10-01T02:19:26.609Z,7.57
2018-10-01T02:21:56.842Z,7.60
2018-10-01T02:24:26.755Z,7.54
2018-10-01T02:26:56.543Z,7.49
2018-10-01T02:29:26.736Z,7.46
2018-10-01T02:31:56.605Z,7.50
2018-10-01T02:34:26.341Z,7.53
2018-10-01T02:36:56.767Z,7.46
2018-10-01T02:39:27.275Z,7.36
2018-10-01T02:41:57.418Z,7.37
2018-10-01T02:44:28.251Z,7.45
2018-10-01T02:46:59.497Z,7.31
2018-10-01T02:49:29.469Z,7.31
2018-10-01T02:52:04.884Z,7.22
2018-10-01T02:54:34.799Z,7.23
2018-10-01T02:57:05.802Z,7.18
2018-10-01T02:59:35.828Z,7.19
2018-10-01T03:02:05.680Z,7.20
2018-10-01T03:04:35.941Z,7.10
2018-10-01T03:07:06.069Z,7.14
2018-10-01T03:09:36.242Z,7.10
2018-10-01T03:12:06.736Z,7.22
2018-10-01T03:14:36.427Z,7.25
2018-10-01T03:17:06.369Z,7.23
2018-10-01T03:19:36.964Z,7.28
2018-10-01T03:22:07.368Z,7.24
2018-10-01T03:24:37.279Z,7.15
2018-10-01T03:27:07.040Z,7.21
2018-10-01T03:29:37.011Z,7.23
2018-10-01T03:32:07.468Z,7.16
2018-10-01T03:34:37.303Z,7.17
2018-10-01T03:37:06.902Z,7.14
2018-10-01T03:39:36.884Z,7.13
2018-10-01T03:42:06.701Z,7.11
2018-10-01T03:44:36.630Z,7.12
2018-10-01T03:47:06.696Z,7.02
2018-10-01T03:49:36.594Z,7.05
2018-10-01T03:52:06.462Z,6.99
2018-10-01T03:54:36.719Z,6.94
2018-10-01T03:57:06.554Z,7.01
2018-10-01T03:59:36.260Z,6.94
2018-10-01T04:02:06.584Z,6.91
2018-10-01T04:04:36.268Z,6.94
2018-10-01T04:07:05.927Z,6.96
2018-10-01T04:09:36.601Z,6.85
2018-10-01T04:12:06.282Z,6.87
2018-10-01T04:14:36.083Z,6.90
2018-10-01T04:17:06.249Z,6.87
2018-10-01T04:19:36.240Z,6.87
2018-10-01T04:22:06.141Z,6.93
2018-10-01T04:24:36.467Z,6.97
2018-10-01T04:27:06.277Z,6.94
2018-10-01T04:29:36.040Z,6.91
2018-10-01T04:32:06.328Z,6.87
2018-10-01T04:34:36.245Z,6.91
2018-10-01T04:37:06.843Z,6.93
2018-10-01T04:39:37.055Z,7.00
2018-10-01T04:42:07.056Z,7.11
2018-10-01T04:44:37.348Z,7.25
2018-10-01T04:47:08.013Z,7.31
2018-10-01T04:49:37.801Z,7.37
2018-10-01T04:52:09.288Z,7.26
2018-10-01T04:54:39.601Z,7.29
2018-10-01T04:57:09.438Z,7.28
2018-10-01T04:59:39.263Z,7.20
2018-10-01T05:02:09.631Z,7.16
2018-10-01T05:04:39.717Z,7.08
2018-10-01T05:07:09.632Z,6.96
2018-10-01T05:09:39.737Z,7.06
2018-10-01T05:12:09.716Z,7.11
2018-10-01T05:14:39.354Z,7.07
2018-10-01T05:17:09.468Z,7.05
2018-10-01T05:19:39.333Z,6.95
2018-10-01T05:22:09.176Z,7.02
2018-10-01T05:24:39.412Z,7.07
2018-10-01T05:27:09.362Z,7.03
2018-10-01T05:29:39.139Z,7.14
2018-10-01T05:32:08.892Z,7.25
2018-10-01T05:34:38.840Z,7.33
2018-10-01T05:37:08.639Z,7.43
2018-10-01T05:39:39.128Z,7.48
2018-10-01T05:42:08.852Z,7.48
2018-10-01T05:44:38.267Z,7.55
2018-10-01T05:47:08.422Z,7.56
2018-10-01T05:49:38.175Z,7.56
2018-10-01T05:52:08.167Z,7.60
2018-10-01T05:54:38.416Z,7.52
2018-10-01T05:57:08.133Z,7.60
2018-10-01T05:59:38.079Z,7.66
2018-10-01T06:02:08.428Z,7.67
2018-10-01T06:04:38.530Z,7.72
2018-10-01T06:07:08.514Z,7.67
2018-10-01T06:09:38.683Z,7.62
2018-10-01T06:12:10.499Z,7.68
2018-10-01T06:14:39.992Z,7.70
2018-10-01T06:17:10.271Z,7.78
2018-10-01T06:19:40.129Z,7.76
2018-10-01T06:22:09.795Z,7.87
2018-10-01T06:24:39.295Z,7.77
2018-10-01T06:27:08.761Z,7.88
2018-10-01T06:29:38.638Z,8.00
2018-10-01T06:32:08.709Z,8.06
2018-10-01T06:34:38.635Z,8.12
2018-10-01T06:37:08.574Z,8.24
2018-10-01T06:39:38.216Z,8.39
2018-10-01T06:42:07.962Z,8.57
2018-10-01T06:44:37.369Z,8.67
2018-10-01T06:47:07.705Z,8.67
2018-10-01T06:49:37.371Z,8.49
2018-10-01T06:52:07.411Z,8.50
2018-10-01T06:54:37.047Z,8.62
2018-10-01T06:57:06.583Z,8.71
2018-10-01T06:59:36.351Z,8.76
2018-10-01T07:02:06.096Z,8.74
2018-10-01T07:04:35.853Z,8.80
2018-10-01T07:07:05.487Z,8.82
2018-10-01T07:09:35.383Z,8.84
2018-10-01T07:12:13.657Z,8.88
2018-10-01T07:14:47.351Z,8.92
2018-10-01T07:17:22.685Z,9.03
2018-10-01T07:19:54.410Z,8.83
2018-10-01T07:22:24.503Z,8.95
2018-10-01T07:24:59.184Z,9.05
2018-10-01T07:27:29.604Z,9.15
2018-10-01T07:30:06.019Z,9.18
2018-10-01T07:32:35.628Z,9.23
2018-10-01T07:35:08.277Z,9.33
2018-10-01T07:37:39.270Z,9.53
2018-10-01T07:40:09.564Z,9.81
2018-10-01T07:42:39.601Z,10.10
2018-10-01T07:45:09.721Z,10.44
2018-10-01T07:47:39.508Z,10.89
2018-10-01T07:50:09.658Z,10.89
2018-10-01T07:52:40.189Z,11.36
2018-10-01T07:55:11.230Z,11.67
2018-10-01T07:57:41.755Z,12.00
2018-10-01T08:00:12.429Z,12.09
2018-10-01T08:02:43.567Z,12.25
2018-10-01T08:05:13.338Z,12.46
2018-10-01T08:07:44.861Z,12.69
2018-10-01T08:10:14.981Z,12.78
2018-10-01T08:12:46.143Z,12.77
2018-10-01T08:15:16.046Z,12.97
2018-10-01T08:17:45.925Z,13.08
2018-10-01T08:20:15.713Z,13.06
2018-10-01T08:22:45.362Z,13.04
2018-10-01T08:25:15.730Z,12.94
2018-10-01T08:27:46.114Z,12.84
2018-10-01T08:30:15.680Z,12.97
2018-10-01T08:32:45.206Z,12.93
2018-10-01T08:35:15.223Z,12.88
2018-10-01T08:37:44.823Z,13.05
2018-10-01T08:40:14.520Z,12.98
2018-10-01T08:42:45.108Z,12.71
2018-10-01T08:45:15.442Z,12.93
2018-10-01T08:47:45.612Z,13.15
2018-10-01T08:50:20.162Z,13.38
2018-10-01T08:52:56.962Z,13.75
2018-10-01T08:55:28.049Z,14.05
2018-10-01T08:57:58.624Z,14.11
2018-10-01T09:00:28.627Z,14.24
2018-10-01T09:02:58.166Z,14.45
2018-10-01T09:05:28.930Z,14.63
2018-10-01T09:07:58.458Z,14.63
2018-10-01T09:10:28.206Z,14.54
2018-10-01T09:12:58.054Z,14.61
2018-10-01T09:15:27.641Z,14.48
2018-10-01T09:17:57.664Z,14.33
2018-10-01T09:20:28.080Z,14.25
2018-10-01T09:22:59.581Z,14.27
2018-10-01T09:25:29.788Z,13.95
2018-10-01T09:27:59.502Z,13.60
2018-10-01T09:30:29.433Z,13.69
2018-10-01T09:32:59.532Z,13.42
2018-10-01T09:35:29.200Z,13.31
2018-10-01T09:37:59.218Z,13.14
2018-10-01T09:40:28.811Z,12.97
2018-10-01T09:42:58.792Z,12.76
2018-10-01T09:45:28.471Z,12.94
2018-10-01T09:47:58.834Z,13.00
2018-10-01T09:50:28.747Z,13.07
2018-10-01T09:52:58.948Z,13.04
2018-10-01T09:55:30.784Z,12.95
2018-10-01T09:58:00.549Z,13.04
2018-10-01T10:00:35.233Z,12.97
2018-10-01T10:03:05.202Z,12.91
2018-10-01T10:05:34.893Z,12.69
2018-10-01T10:08:04.985Z,12.93
2018-10-01T10:10:34.862Z,12.89
2018-10-01T10:13:04.478Z,12.81
2018-10-01T10:15:37.679Z,12.86
2018-10-01T10:18:08.347Z,12.87
2018-10-01T10:20:39.000Z,12.85
2018-10-01T10:23:09.188Z,12.81
2018-10-01T10:25:40.636Z,12.84
2018-10-01T10:28:11.791Z,12.95
2018-10-01T10:30:43.327Z,13.09
2018-10-01T10:33:12.867Z,13.14
2018-10-01T10:35:42.377Z,13.26
2018-10-01T10:38:12.501Z,13.20
2018-10-01T10:40:42.171Z,13.27
2018-10-01T10:43:12.239Z,13.04
2018-10-01T10:45:41.974Z,12.79
2018-10-01T10:48:11.908Z,12.99
2018-10-01T10:50:41.754Z,13.04
2018-10-01T10:53:11.465Z,13.16
2018-10-01T10:55:41.487Z,13.24
2018-10-01T10:58:12.277Z,13.33
2018-10-01T11:00:42.356Z,13.46
2018-10-01T11:03:12.579Z,13.67
2018-10-01T11:05:42.706Z,13.79
2018-10-01T11:08:13.602Z,13.88
2018-10-01T11:10:43.779Z,13.83
2018-10-01T11:13:13.804Z,13.80
2018-10-01T11:15:43.997Z,13.75
2018-10-01T11:18:13.865Z,13.93
2018-10-01T11:20:43.990Z,14.06
2018-10-01T11:23:13.679Z,14.14
2018-10-01T11:25:44.196Z,14.57
2018-10-01T11:28:14.440Z,14.79
2018-10-01T11:30:44.681Z,14.91
2018-10-01T11:33:16.060Z,15.23
2018-10-01T11:35:46.747Z,15.60
2018-10-01T11:38:17.246Z,16.00
2018-10-01T11:40:47.273Z,16.15
2018-10-01T11:43:18.387Z,16.00
2018-10-01T11:45:48.205Z,15.93
2018-10-01T11:48:17.675Z,15.74
2018-10-01T11:50:47.243Z,15.69
2018-10-01T11:53:17.014Z,15.87
2018-10-01T11:55:46.721Z,16.11
2018-10-01T11:58:17.902Z,16.23
2018-10-01T12:00:47.748Z,15.92
2018-10-01T12:03:17.428Z,16.01
2018-10-01T12:05:47.340Z,16.04
2018-10-01T12:08:17.326Z,16.38
2018-10-01T12:10:47.001Z,16.31
2018-10-01T12:13:16.719Z,15.97
2018-10-01T12:15:46.776Z,15.67
2018-10-01T12:18:16.621Z,15.41
2018-10-01T12:20:46.256Z,15.34
2018-10-01T12:23:16.405Z,15.21
2018-10-01T12:25:45.916Z,15.26
2018-10-01T12:28:15.634Z,15.22
2018-10-01T12:30:45.191Z,14.85
2018-10-01T12:33:14.877Z,14.99
2018-10-01T12:35:44.487Z,14.64
2018-10-01T12:38:14.687Z,14.72
2018-10-01T12:40:44.687Z,14.96
2018-10-01T12:43:16.159Z,14.92
2018-10-01T12:45:46.290Z,14.64
2018-10-01T12:48:17.127Z,14.57
2018-10-01T12:50:47.350Z,14.18
2018-10-01T12:53:17.537Z,14.08
2018-10-01T12:55:48.716Z,14.25
2018-10-01T12:58:19.114Z,14.18
2018-10-01T13:00:48.758Z,14.21
2018-10-01T13:03:19.089Z,14.32
2018-10-01T13:05:49.355Z,14.45
2018-10-01T13:08:18.972Z,14.98
2018-10-01T13:10:48.549Z,15.42
2018-10-01T13:13:18.811Z,15.76
2018-10-01T13:15:48.660Z,16.03
2018-10-01T13:18:19.217Z,16.32
2018-10-01T13:20:49.203Z,16.21
2018-10-01T13:23:19.397Z,15.98
2018-10-01T13:25:49.002Z,16.28
2018-10-01T13:28:20.648Z,16.41
2018-10-01T13:30:50.392Z,16.25
2018-10-01T13:33:20.752Z,15.71
2018-10-01T13:35:51.498Z,15.62
2018-10-01T13:38:21.480Z,15.71
2018-10-01T13:40:52.313Z,15.53
2018-10-01T13:43:22.298Z,15.63
2018-10-01T13:45:52.183Z,15.53
2018-10-01T13:48:22.609Z,15.43
2018-10-01T13:50:52.394Z,15.58
2018-10-01T13:53:21.942Z,15.76
2018-10-01T13:55:51.566Z,16.06
2018-10-01T13:58:22.071Z,16.37
2018-10-01T14:00:51.629Z,16.21
2018-10-01T14:03:21.799Z,15.98
2018-10-01T14:05:51.999Z,15.95
2018-10-01T14:08:22.631Z,15.74
2018-10-01T14:10:52.662Z,15.06
2018-10-01T14:13:24.150Z,13.89
2018-10-01T14:15:53.866Z,13.11
2018-10-01T14:18:24.834Z,12.79
2018-10-01T14:20:54.848Z,12.62
2018-10-01T14:23:25.161Z,12.51
2018-10-01T14:25:55.091Z,12.55
2018-10-01T14:28:27.463Z,12.91
2018-10-01T14:30:57.340Z,13.11
2018-10-01T14:33:27.654Z,13.45
2018-10-01T14:35:59.455Z,13.86
2018-10-01T14:38:29.567Z,14.31
2018-10-01T14:40:59.580Z,14.93
2018-10-01T14:43:30.276Z,15.08
2018-10-01T14:46:02.916Z,14.68
2018-10-01T14:48:32.630Z,14.41
2018-10-01T14:51:07.674Z,14.22
2018-10-01T14:53:39.856Z,13.98
2018-10-01T14:56:11.971Z,13.76
2018-10-01T14:58:42.002Z,13.68
2018-10-01T15:01:14.908Z,13.60
2018-10-01T15:03:50.343Z,13.87
2018-10-01T15:06:22.282Z,14.07
2018-10-01T15:08:55.097Z,14.10
2018-10-01T15:11:26.947Z,13.95
2018-10-01T15:13:59.031Z,13.89
2018-10-01T15:16:32.403Z,13.88
2018-10-01T15:19:02.994Z,13.76
2018-10-01T15:21:37.641Z,13.63
2018-10-01T15:24:08.686Z,13.84
2018-10-01T15:26:38.711Z,13.76
2018-10-01T15:29:11.403Z,12.76
2018-10-01T15:31:41.946Z,11.13
2018-10-01T15:34:11.633Z,10.25
2018-10-01T15:36:42.170Z,9.91
2018-10-01T15:39:12.338Z,9.64
2018-10-01T15:41:42.734Z,9.20
2018-10-01T15:44:13.938Z,8.95
2018-10-01T15:46:44.308Z,8.74
2018-10-01T15:49:21.335Z,8.77
2018-10-01T15:51:52.029Z,8.77
2018-10-01T15:54:22.563Z,8.74
2018-10-01T15:56:52.321Z,8.71
2018-10-01T15:59:22.383Z,8.76
2018-10-01T16:01:52.012Z,8.85
2018-10-01T16:04:23.018Z,8.95
2018-10-01T16:06:53.188Z,8.97
2018-10-01T16:09:23.377Z,8.97
2018-10-01T16:11:53.713Z,9.20
2018-10-01T16:14:26.246Z,9.36
2018-10-01T16:16:56.915Z,9.37
2018-10-01T16:19:26.798Z,9.44
2018-10-01T16:21:57.464Z,9.59
2018-10-01T16:24:27.582Z,9.53
2018-10-01T16:26:58.542Z,9.48
2018-10-01T16:29:29.613Z,9.50
2018-10-01T16:31:59.488Z,9.54
2018-10-01T16:34:29.805Z,9.49
2018-10-01T16:37:00.058Z,9.48
2018-10-01T16:39:30.135Z,9.48
2018-10-01T16:42:00.831Z,9.52
2018-10-01T16:44:31.654Z,9.43
2018-10-01T16:47:01.698Z,9.47
2018-10-01T16:50:56.773Z,9.34
2018-10-01T16:53:27.563Z,9.40
2018-10-01T16:55:58.345Z,9.42
2018-10-01T16:58:28.333Z,9.48
2018-10-01T17:00:57.992Z,9.45
2018-10-01T17:03:28.289Z,9.45
2018-10-01T17:05:59.967Z,9.54
2018-10-01T17:08:31.715Z,9.41
2018-10-01T17:11:02.031Z,9.34
2018-10-01T17:13:31.917Z,9.33
2018-10-01T17:16:03.683Z,9.34
2018-10-01T17:18:33.609Z,9.24
2018-10-01T17:21:03.623Z,9.20
2018-10-01T17:23:33.589Z,9.30
2018-10-01T17:26:03.886Z,9.29
2018-10-01T17:28:34.124Z,9.38
2018-10-01T17:31:04.276Z,9.28
2018-10-01T17:33:35.055Z,9.21
2018-10-01T17:36:05.287Z,9.21
2018-10-01T17:38:35.562Z,9.30
2018-10-01T17:41:07.266Z,9.33
2018-10-01T17:43:36.856Z,9.44
2018-10-01T17:46:07.436Z,9.41
2018-10-01T17:48:37.960Z,9.47
2018-10-01T17:51:07.844Z,9.40
2018-10-01T17:53:38.407Z,9.55
2018-10-01T17:56:09.428Z,9.51
2018-10-01T17:58:39.321Z,9.54
2018-10-01T18:01:10.287Z,9.45
2018-10-01T18:03:40.514Z,9.64
2018-10-01T18:06:13.599Z,9.74
2018-10-01T18:08:44.339Z,9.61
2018-10-01T18:11:14.947Z,9.53
2018-10-01T18:13:45.041Z,9.52
2018-10-01T18:16:15.756Z,9.42
2018-10-01T18:18:45.830Z,9.37
2018-10-01T18:21:18.640Z,9.14
2018-10-01T18:23:48.903Z,9.21
2018-10-01T18:26:19.663Z,9.13
2018-10-01T18:28:50.098Z,9.14
2018-10-01T18:31:19.714Z,9.19
2018-10-01T18:33:51.034Z,9.21
2018-10-01T18:36:21.640Z,9.32
2018-10-01T18:38:51.435Z,9.38
2018-10-01T18:41:20.869Z,9.29
2018-10-01T18:43:50.439Z,9.24
2018-10-01T18:46:21.427Z,9.36
2018-10-01T18:48:51.988Z,9.10
2018-10-01T18:51:21.534Z,8.88
2018-10-01T18:53:52.387Z,9.08
2018-10-01T18:56:23.928Z,9.02
2018-10-01T18:58:59.274Z,8.93
2018-10-01T19:01:29.674Z,8.79
2018-10-01T19:04:03.493Z,8.70
2018-10-01T19:06:34.592Z,8.73
2018-10-01T19:09:06.170Z,8.62
2018-10-01T19:11:38.772Z,8.63
2018-10-01T19:14:10.952Z,8.53
2018-10-01T19:16:48.783Z,8.46
2018-10-01T19:19:28.388Z,8.39
2018-10-01T19:22:02.387Z,8.39
2018-10-01T19:24:33.492Z,8.37
2018-10-01T19:27:06.367Z,8.33
2018-10-01T19:29:37.291Z,8.43
2018-10-01T19:32:09.252Z,8.48
2018-10-01T19:34:41.876Z,8.47
2018-10-01T19:37:12.606Z,8.55
2018-10-01T19:39:42.902Z,8.64
2018-10-01T19:42:12.937Z,8.68
2018-10-01T19:44:43.067Z,8.66
2018-10-01T19:47:13.247Z,8.62
2018-10-01T19:49:43.128Z,8.58
2018-10-01T19:52:15.968Z,8.60
2018-10-01T19:54:48.470Z,8.76
2018-10-01T19:57:18.726Z,8.76
2018-10-01T19:59:48.566Z,8.78
2018-10-01T20:03:22.121Z,8.83
2018-10-01T20:05:54.087Z,8.64
2018-10-01T20:08:26.867Z,8.72
2018-10-01T20:11:01.070Z,8.77
2018-10-01T20:13:32.541Z,8.67
2018-10-01T20:16:05.832Z,8.62
2018-10-01T20:18:35.636Z,8.50
2018-10-01T20:21:07.651Z,8.49
2018-10-01T20:23:37.894Z,8.32
2018-10-01T20:26:07.804Z,8.31
2018-10-01T20:28:38.593Z,8.09
2018-10-01T20:31:14.029Z,8.11
2018-10-01T20:33:47.443Z,8.12
2018-10-01T20:36:23.053Z,8.07
2018-10-01T20:38:58.650Z,7.99
2018-10-01T20:41:36.657Z,7.98
2018-10-01T20:44:07.185Z,7.91
2018-10-01T20:46:42.004Z,7.99
2018-10-01T20:49:14.157Z,7.94
2018-10-01T20:51:47.580Z,7.90
2018-10-01T20:54:20.082Z,7.91
2018-10-01T20:56:52.181Z,7.90
2018-10-01T20:59:22.034Z,7.80
2018-10-01T21:01:54.450Z,7.78
2018-10-01T21:04:26.876Z,7.77
2018-10-01T21:06:58.517Z,7.75
2018-10-01T21:09:30.094Z,7.80
2018-10-01T21:12:01.415Z,7.87
2018-10-01T21:14:31.885Z,7.80
2018-10-01T21:17:04.102Z,7.80
2018-10-01T21:19:38.834Z,7.66
2018-10-01T21:22:10.714Z,7.70
2018-10-01T21:24:43.759Z,7.70
2018-10-01T21:27:17.077Z,7.62
2018-10-01T21:29:46.868Z,7.59
2018-10-01T21:32:21.864Z,7.55
2018-10-01T21:34:53.885Z,7.51
2018-10-01T21:37:25.405Z,7.37
2018-10-01T21:40:07.810Z,7.42
2018-10-01T21:42:41.357Z,7.46
2018-10-01T21:45:21.268Z,7.51
2018-10-01T21:47:51.571Z,7.52
2018-10-01T21:50:21.966Z,7.60
2018-10-01T21:52:52.924Z,7.53
2018-10-01T21:55:24.316Z,7.58
2018-10-01T21:57:57.382Z,7.63
2018-10-01T22:00:33.881Z,7.62
2018-10-01T22:03:14.048Z,7.57
2018-10-01T22:05:46.167Z,7.51
2018-10-01T22:08:19.806Z,7.51
2018-10-01T22:10:51.062Z,7.42
2018-10-01T22:13:23.042Z,7.29
2018-10-01T22:15:55.314Z,7.28
2018-10-01T22:18:26.067Z,7.32
2018-10-01T22:20:56.629Z,7.41
2018-10-01T22:23:30.019Z,7.42
2018-10-01T22:26:02.123Z,7.45
2018-10-01T22:28:34.406Z,7.52
2018-10-01T22:31:07.005Z,7.61
2018-10-01T22:33:39.152Z,7.70
2018-10-01T22:36:09.586Z,7.66
2018-10-01T22:38:39.825Z,7.80
2018-10-01T22:41:12.824Z,7.80
2018-10-01T22:43:43.988Z,7.86
2018-10-01T22:46:16.495Z,8.00
2018-10-01T22:48:51.501Z,8.08
2018-10-01T22:51:23.176Z,8.07
2018-10-01T22:53:59.601Z,8.05
2018-10-01T22:56:30.402Z,8.07
2018-10-01T22:59:04.265Z,8.18
2018-10-01T23:01:35.686Z,8.13
2018-10-01T23:04:07.049Z,8.15
2018-10-01T23:06:37.540Z,8.28
2018-10-01T23:09:12.312Z,8.29
2018-10-01T23:11:42.384Z,8.25
2018-10-01T23:14:12.987Z,8.27
2018-10-01T23:16:43.143Z,8.28
2018-10-01T23:19:13.733Z,8.30
2018-10-01T23:21:44.297Z,8.38
2018-10-01T23:24:15.464Z,8.36
2018-10-01T23:26:46.283Z,8.38
2018-10-01T23:29:16.108Z,8.27
2018-10-01T23:31:46.294Z,8.18
2018-10-01T23:34:17.549Z,8.22
2018-10-01T23:36:48.520Z,8.22
2018-10-01T23:39:19.099Z,8.20
2018-10-01T23:41:49.656Z,8.17
2018-10-01T23:44:20.512Z,8.31
2018-10-01T23:46:50.482Z,8.10
2018-10-01T23:49:22.077Z,8.13
2018-10-01T23:51:52.806Z,8.09
2018-10-01T23:54:24.948Z,8.14
2018-10-01T23:57:01.033Z,8.07
2018-10-01T23:59:31.788Z,8.08
